Time;durP1;ratioP1;P1;durP2;ratioP2;P2;SDS_P1;SDS_P2;PMS_P1;PMS_P2;Temp;Humidity;BMP_temperature;BMP_pressure;BME280_temperature;BME280_humidity;BME280_pressure;Samples;Min_cycle;Max_cycle;Signal;HPM_P1;HPM_P2
2023/05/14 00:00:06;;;;;;;4.68;2.35;;;20.80;56.40;;;;;;8268912;28;20505;-79
2023/05/14 00:04:07;;;;;;;6.00;2.25;;;20.80;56.50;;;;;;8268950;28;20069;-79
2023/05/14 00:08:07;;;;;;;5.15;2.13;;;20.80;56.50;;;;;;8286723;28;20034;-80
2023/05/14 00:12:08;;;;;;;6.07;2.55;;;20.80;56.40;;;;;;8269476;28;20042;-80
2023/05/14 00:16:09;;;;;;;2.67;2.03;;;20.80;56.50;;;;;;8284401;28;20034;-79
2023/05/14 00:20:11;;;;;;;2.97;2.05;;;20.70;56.40;;;;;;8269915;28;20065;-79
2023/05/14 00:24:11;;;;;;;4.47;2.17;;;20.80;56.50;;;;;;8303037;28;20030;-80
2023/05/14 00:28:12;;;;;;;3.35;2.25;;;20.80;56.50;;;;;;8269329;28;20464;-79
2023/05/14 00:32:13;;;;;;;3.45;2.47;;;20.70;56.50;;;;;;8247742;28;20046;-78
2023/05/14 00:36:13;;;;;;;4.10;2.40;;;20.70;56.50;;;;;;8292832;28;20392;-79
2023/05/14 00:40:14;;;;;;;3.58;2.10;;;20.70;56.60;;;;;;8281669;28;20034;-78
2023/05/14 00:44:15;;;;;;;4.20;2.00;;;20.70;56.50;;;;;;8277360;28;20436;-79
2023/05/14 00:48:16;;;;;;;5.43;2.10;;;20.70;56.60;;;;;;8249772;28;20396;-79
2023/05/14 00:52:17;;;;;;;3.50;2.38;;;20.70;56.60;;;;;;8286717;28;20056;-80
2023/05/14 00:56:18;;;;;;;3.60;1.80;;;20.70;56.60;;;;;;8281243;28;20530;-78
2023/05/14 01:00:19;;;;;;;3.90;2.05;;;20.70;56.50;;;;;;8300795;28;20117;-79
2023/05/14 01:04:20;;;;;;;;;;;20.70;56.60;;;;;;8281708;28;20068;-78
2023/05/14 01:08:45;;;;;;;3.33;2.00;;;20.70;56.60;;;;;;8298463;28;19917;-79
2023/05/14 01:12:59;;;;;;;7.25;1.85;;;20.70;56.70;;;;;;8298014;28;20041;-79
2023/05/14 01:17:03;;;;;;;10.88;2.10;;;20.70;56.70;;;;;;8280635;28;20030;-78
2023/05/14 01:21:05;;;;;;;7.60;2.30;;;20.70;56.80;;;;;;8329545;28;20025;-78
2023/05/14 01:25:06;;;;;;;3.47;2.50;;;20.70;57.30;;;;;;8304626;28;20045;-79
2023/05/14 01:29:20;;;;;;;5.55;2.20;;;20.70;57.00;;;;;;8311873;28;20041;-80
2023/05/14 01:33:23;;;;;;;5.72;2.17;;;20.70;56.90;;;;;;8299979;28;20506;-80
2023/05/14 01:37:25;;;;;;;4.80;2.00;;;20.70;56.80;;;;;;8284907;28;20463;-78
2023/05/14 01:41:27;;;;;;;4.30;2.22;;;20.70;56.80;;;;;;8232391;28;20060;-79
2023/05/14 01:45:29;;;;;;;4.07;2.30;;;20.80;56.80;;;;;;8293112;28;20057;-79
2023/05/14 01:49:31;;;;;;;10.10;2.72;;;20.80;57.30;;;;;;8279976;28;20033;-80
2023/05/14 01:53:33;;;;;;;3.10;1.85;;;20.80;56.80;;;;;;8263990;28;20506;-79
2023/05/14 01:57:34;;;;;;;5.28;1.92;;;20.80;56.70;;;;;;8260277;28;20125;-79
2023/05/14 02:01:35;;;;;;;2.42;2.00;;;20.80;56.70;;;;;;8285021;28;20042;-78
2023/05/14 02:05:35;;;;;;;4.38;2.05;;;20.80;56.70;;;;;;8281952;28;20503;-78
2023/05/14 02:09:36;;;;;;;4.60;1.80;;;20.70;56.70;;;;;;8271535;28;20026;-79
2023/05/14 02:13:36;;;;;;;4.55;2.33;;;20.80;56.80;;;;;;8280138;28;20038;-80
2023/05/14 02:17:37;;;;;;;5.43;2.63;;;20.70;56.80;;;;;;8244989;28;20046;-78
2023/05/14 02:21:38;;;;;;;5.18;1.90;;;20.70;56.80;;;;;;8232858;28;20412;-79
2023/05/14 02:25:39;;;;;;;3.85;1.73;;;20.70;56.70;;;;;;8278017;28;20488;-79
2023/05/14 02:29:39;;;;;;;4.15;2.40;;;20.70;56.60;;;;;;8246446;28;20038;-80
2023/05/14 02:33:40;;;;;;;2.03;1.70;;;20.70;56.80;;;;;;8278853;28;20049;-78
2023/05/14 02:37:41;;;;;;;3.63;2.25;;;20.60;56.60;;;;;;8278753;28;20550;-78
2023/05/14 02:41:41;;;;;;;4.78;1.90;;;20.60;56.60;;;;;;8296277;28;20030;-78
2023/05/14 02:45:42;;;;;;;2.88;1.73;;;20.60;56.50;;;;;;8278541;28;20045;-79
2023/05/14 02:49:43;;;;;;;3.20;1.70;;;20.60;56.60;;;;;;8245957;28;20490;-79
2023/05/14 02:53:43;;;;;;;4.15;1.98;;;20.60;56.50;;;;;;8290317;28;20046;-79
2023/05/14 02:57:44;;;;;;;3.28;1.88;;;20.60;56.50;;;;;;8245996;28;20039;-78
2023/05/14 03:01:45;;;;;;;2.90;1.70;;;20.60;56.80;;;;;;8263338;28;20030;-78
2023/05/14 03:05:45;;;;;;;1.88;1.60;;;20.60;56.70;;;;;;8246336;28;20035;-78
2023/05/14 03:09:46;;;;;;;2.53;1.92;;;20.60;56.70;;;;;;8246164;28;20374;-79
2023/05/14 03:13:46;;;;;;;3.03;1.90;;;20.60;56.70;;;;;;8266418;28;20034;-79
2023/05/14 03:17:48;;;;;;;2.43;1.63;;;20.60;57.10;;;;;;8252120;28;20278;-79
2023/05/14 03:21:48;;;;;;;6.43;1.65;;;20.60;56.60;;;;;;8252978;28;20328;-79
2023/05/14 03:25:49;;;;;;;2.75;1.88;;;20.60;56.60;;;;;;8284430;28;20030;-79
2023/05/14 03:29:50;;;;;;;3.97;1.88;;;20.60;56.60;;;;;;8267762;28;20112;-79
2023/05/14 03:33:51;;;;;;;3.05;1.70;;;20.60;56.60;;;;;;8284053;28;20435;-78
2023/05/14 03:37:51;;;;;;;1.73;1.60;;;20.60;56.60;;;;;;8284365;28;20067;-78
2023/05/14 03:41:52;;;;;;;3.17;1.80;;;20.60;56.60;;;;;;8283667;28;20396;-79
2023/05/14 03:45:53;;;;;;;4.40;1.80;;;20.60;56.60;;;;;;8283732;28;20112;-79
2023/05/14 03:49:54;;;;;;;2.45;1.58;;;20.60;56.60;;;;;;8267197;28;20062;-78
2023/05/14 03:53:54;;;;;;;2.20;1.70;;;20.60;56.60;;;;;;8267311;28;20038;-79
2023/05/14 03:57:55;;;;;;;3.60;1.80;;;20.60;56.60;;;;;;8300786;28;20029;-79
2023/05/14 04:01:55;;;;;;;1.70;1.60;;;20.60;56.60;;;;;;8266854;28;20045;-79
2023/05/14 04:05:56;;;;;;;1.87;1.67;;;20.60;56.60;;;;;;8282996;28;20038;-79
2023/05/14 04:09:57;;;;;;;5.50;2.13;;;20.60;56.60;;;;;;8267038;28;20280;-79
2023/05/14 04:13:57;;;;;;;3.05;1.40;;;20.70;56.70;;;;;;8300027;28;20332;-78
2023/05/14 04:17:58;;;;;;;2.95;1.90;;;20.70;56.60;;;;;;8266312;28;20026;-77
2023/05/14 04:21:59;;;;;;;4.47;1.55;;;20.70;56.40;;;;;;8250308;28;20034;-78
2023/05/14 04:25:59;;;;;;;4.85;1.95;;;20.70;56.30;;;;;;8281196;28;20052;-78
2023/05/14 04:30:00;;;;;;;7.47;2.10;;;20.70;56.20;;;;;;8263036;28;20030;-79
2023/05/14 04:34:01;;;;;;;5.00;1.55;;;20.80;56.20;;;;;;8295053;28;20042;-78
2023/05/14 04:38:02;;;;;;;5.57;1.65;;;20.70;56.30;;;;;;8277599;28;20037;-78
2023/05/14 04:42:02;;;;;;;6.28;1.60;;;20.70;56.30;;;;;;8295636;28;20033;-78
2023/05/14 04:46:04;;;;;;;8.18;2.13;;;20.70;56.40;;;;;;8262631;28;20040;-78
2023/05/14 04:50:05;;;;;;;;;;;20.60;56.50;;;;;;8297471;28;20511;-78
2023/05/14 04:54:06;;;;;;;3.00;1.60;;;20.60;56.60;;;;;;8296844;28;19920;-78
2023/05/14 04:58:06;;;;;;;2.20;1.63;;;20.50;56.70;;;;;;8279121;28;20049;-78
2023/05/14 05:02:07;;;;;;;2.83;1.45;;;20.50;56.80;;;;;;8279263;28;20088;-78
2023/05/14 05:06:08;;;;;;;2.38;1.80;;;20.50;56.80;;;;;;8262824;28;20092;-78
2023/05/14 05:10:08;;;;;;;2.97;2.67;;;20.40;56.80;;;;;;8279033;28;20041;-78
2023/05/14 05:14:09;;;;;;;2.97;1.63;;;20.40;56.80;;;;;;8278871;28;20070;-78
2023/05/14 05:18:10;;;;;;;2.43;1.67;;;20.40;56.90;;;;;;8296024;28;20050;-78
2023/05/14 05:22:11;;;;;;;4.22;1.92;;;20.30;56.90;;;;;;8296392;28;20285;-78
2023/05/14 05:26:11;;;;;;;3.72;2.00;;;20.40;57.00;;;;;;8278609;28;20042;-78
2023/05/14 05:30:12;;;;;;;2.38;1.90;;;20.30;56.90;;;;;;8277870;28;20080;-78
2023/05/14 05:34:13;;;;;;;2.53;1.85;;;20.30;57.10;;;;;;8261927;28;20068;-78
2023/05/14 05:38:14;;;;;;;4.38;1.70;;;20.40;57.10;;;;;;8295242;28;20322;-78
2023/05/14 05:42:15;;;;;;;2.42;1.50;;;20.40;57.00;;;;;;8277819;28;20045;-78
2023/05/14 05:46:15;;;;;;;3.13;1.88;;;20.40;57.00;;;;;;8277816;28;20121;-78
2023/05/14 05:50:16;;;;;;;1.70;1.50;;;20.40;56.90;;;;;;8239450;28;20055;-78
2023/05/14 05:54:17;;;;;;;4.45;1.90;;;20.40;57.00;;;;;;8197265;28;20035;-78
2023/05/14 05:58:18;;;;;;;3.40;1.85;;;20.40;56.90;;;;;;8229057;28;20113;-78
2023/05/14 06:02:19;;;;;;;;;;;20.40;56.90;;;;;;8197337;28;20287;-78
2023/05/14 06:06:20;;;;;;;3.13;1.83;;;20.40;56.90;;;;;;8230682;28;20375;-78
2023/05/14 06:10:21;;;;;;;;;;;20.40;57.40;;;;;;8213479;28;20081;-78
2023/05/14 06:14:22;;;;;;;2.93;1.80;;;20.30;56.80;;;;;;8229876;28;19925;-78
2023/05/14 06:18:22;;;;;;;3.10;1.98;;;20.30;56.90;;;;;;8228676;28;20027;-78
2023/05/14 06:22:23;;;;;;;3.65;2.05;;;20.30;56.90;;;;;;8213270;28;20038;-78
2023/05/14 06:26:24;;;;;;;3.65;1.92;;;20.30;56.90;;;;;;8228801;28;20508;-78
2023/05/14 06:30:25;;;;;;;3.35;1.70;;;20.30;56.90;;;;;;8213161;28;20058;-78
2023/05/14 06:34:26;;;;;;;6.60;1.90;;;20.30;56.90;;;;;;8214714;28;20043;-77
2023/05/14 06:38:27;;;;;;;3.92;2.20;;;20.30;57.00;;;;;;8214580;28;20035;-78
2023/05/14 06:42:27;;;;;;;4.03;2.47;;;20.30;57.00;;;;;;8235486;28;20042;-78
2023/05/14 06:46:28;;;;;;;3.55;1.90;;;20.30;57.00;;;;;;8255226;28;20019;-78
2023/05/14 06:50:29;;;;;;;2.65;1.60;;;20.30;57.00;;;;;;8277136;28;20059;-78
2023/05/14 06:54:30;;;;;;;3.38;1.80;;;20.30;57.00;;;;;;8278151;28;20065;-78
2023/05/14 06:58:30;;;;;;;4.57;1.95;;;20.30;56.90;;;;;;8277926;28;20030;-78
2023/05/14 07:02:31;;;;;;;3.10;1.67;;;20.30;56.90;;;;;;8262050;28;20054;-78
2023/05/14 07:06:32;;;;;;;2.50;1.60;;;20.30;56.90;;;;;;8261522;28;20031;-78
2023/05/14 07:10:32;;;;;;;2.83;1.97;;;20.30;56.90;;;;;;8257463;28;20280;-79
2023/05/14 07:14:33;;;;;;;3.95;1.90;;;20.20;56.90;;;;;;8234123;28;20330;-78
2023/05/14 07:18:34;;;;;;;3.20;1.60;;;20.30;56.90;;;;;;8235398;28;20023;-78
2023/05/14 07:22:35;;;;;;;2.53;1.88;;;20.30;56.90;;;;;;8234457;28;20035;-78
2023/05/14 07:26:35;;;;;;;3.23;1.67;;;20.30;56.90;;;;;;8217950;28;20114;-78
2023/05/14 07:30:36;;;;;;;1.83;1.65;;;20.30;56.90;;;;;;8235213;28;20270;-78
2023/05/14 07:34:36;;;;;;;2.80;1.85;;;20.30;56.90;;;;;;8233576;28;20046;-78
2023/05/14 07:38:37;;;;;;;1.80;1.40;;;20.20;56.90;;;;;;8234484;28;20058;-78
2023/05/14 07:42:38;;;;;;;2.33;1.70;;;20.20;56.90;;;;;;8217217;28;20039;-78
2023/05/14 07:46:39;;;;;;;3.92;1.88;;;20.20;56.90;;;;;;8217103;28;20050;-78
2023/05/14 07:50:40;;;;;;;2.25;1.70;;;20.20;56.90;;;;;;8201524;28;20055;-78
2023/05/14 07:54:41;;;;;;;2.85;1.55;;;20.20;56.90;;;;;;8232975;28;20045;-78
2023/05/14 07:58:41;;;;;;;2.08;1.20;;;20.20;56.90;;;;;;8232432;28;20034;-78
2023/05/14 08:02:43;;;;;;;2.40;1.80;;;20.20;57.00;;;;;;8232809;28;20401;-78
2023/05/14 08:06:44;;;;;;;2.38;1.65;;;20.20;56.90;;;;;;8216561;28;20035;-78
2023/05/14 08:10:44;;;;;;;3.00;1.42;;;20.20;56.90;;;;;;8232297;28;20041;-78
2023/05/14 08:14:45;;;;;;;2.90;1.73;;;20.20;56.90;;;;;;8232758;28;20117;-78
2023/05/14 08:18:46;;;;;;;3.35;1.40;;;20.20;57.00;;;;;;8231991;28;20464;-78
2023/05/14 08:22:46;;;;;;;2.63;1.40;;;20.20;57.20;;;;;;8216123;28;20035;-78
2023/05/14 08:26:47;;;;;;;1.38;1.27;;;20.20;56.90;;;;;;8233313;28;20065;-78
2023/05/14 08:30:48;;;;;;;2.20;1.30;;;20.20;56.80;;;;;;8231458;28;20151;-78
2023/05/14 08:34:48;;;;;;;2.22;1.70;;;20.30;56.80;;;;;;8215877;28;20078;-78
2023/05/14 08:38:49;;;;;;;2.33;1.63;;;20.30;56.80;;;;;;8215255;28;20481;-78
2023/05/14 08:42:50;;;;;;;3.05;1.67;;;20.20;56.70;;;;;;8231178;28;20125;-78
2023/05/14 08:46:52;;;;;;;1.60;1.40;;;20.20;56.70;;;;;;8231637;28;20524;-79
2023/05/14 08:50:53;;;;;;;2.90;1.55;;;20.20;56.70;;;;;;8214808;28;20054;-78
2023/05/14 08:54:55;;;;;;;1.65;1.45;;;20.20;56.70;;;;;;8232098;28;20115;-78
2023/05/14 08:58:55;;;;;;;2.55;1.40;;;20.20;56.70;;;;;;8230524;28;20042;-78
2023/05/14 09:02:57;;;;;;;1.55;1.45;;;20.30;56.80;;;;;;8215260;28;20114;-78
2023/05/14 09:07:00;;;;;;;2.60;1.70;;;20.20;57.20;;;;;;8231846;28;20117;-79
2023/05/14 09:11:01;;;;;;;3.22;1.73;;;20.20;56.70;;;;;;8229999;28;20085;-78
2023/05/14 09:15:02;;;;;;;3.40;1.90;;;20.20;56.70;;;;;;8214028;28;20480;-78
2023/05/14 09:19:04;;;;;;;2.20;1.70;;;20.20;56.70;;;;;;8214288;28;20462;-78
2023/05/14 09:23:05;;;;;;;1.52;1.30;;;20.20;56.70;;;;;;8214591;28;20448;-78
2023/05/14 09:27:06;;;;;;;1.55;1.30;;;20.20;56.70;;;;;;8230091;28;20097;-78
2023/05/14 09:31:08;;;;;;;2.35;1.75;;;20.20;56.80;;;;;;8231010;28;20031;-78
2023/05/14 09:35:21;;;;;;;1.42;1.33;;;20.20;56.80;;;;;;8232258;28;20026;-78
2023/05/14 09:39:23;;;;;;;1.20;1.10;;;20.20;56.80;;;;;;8230716;28;20062;-78
2023/05/14 09:43:24;;;;;;;1.98;1.65;;;20.20;56.80;;;;;;8229530;28;20473;-78
2023/05/14 09:47:25;;;;;;;1.77;1.30;;;20.20;56.80;;;;;;8213178;28;20463;-78
2023/05/14 09:51:28;;;;;;;;;;;20.20;56.80;;;;;;8229447;28;20058;-78
2023/05/14 09:55:30;;;;;;;2.10;1.52;;;20.20;56.80;;;;;;8229420;28;19993;-78
2023/05/14 09:59:31;;;;;;;1.65;1.30;;;20.20;56.90;;;;;;8230396;28;20062;-78
2023/05/14 10:03:32;;;;;;;1.48;1.33;;;20.20;57.00;;;;;;8212911;28;20125;-79
2023/05/14 10:07:46;;;;;;;2.05;1.38;;;20.20;56.80;;;;;;8228874;28;20042;-78
2023/05/14 10:11:52;;;;;;;3.17;1.73;;;20.30;56.70;;;;;;8229900;28;20038;-78
2023/05/14 10:16:21;;;;;;;2.90;1.30;;;20.30;56.60;;;;;;8229897;28;20046;-79
2023/05/14 10:20:23;;;;;;;2.00;1.70;;;20.30;56.50;;;;;;8228489;28;20030;-78
2023/05/14 10:24:25;;;;;;;2.35;1.25;;;20.30;56.50;;;;;;8229315;28;20026;-78
2023/05/14 10:28:26;;;;;;;2.40;1.25;;;20.30;56.50;;;;;;8212484;28;20109;-78
2023/05/14 10:32:31;;;;;;;2.20;1.60;;;20.30;56.50;;;;;;8212207;28;20397;-78
2023/05/14 10:36:32;;;;;;;1.52;1.20;;;20.30;56.50;;;;;;8197458;28;20035;-78
2023/05/14 10:40:33;;;;;;;2.20;1.40;;;20.30;56.50;;;;;;8211913;28;20505;-78
2023/05/14 10:44:34;;;;;;;2.35;0.90;;;20.30;56.50;;;;;;8228154;28;20035;-78
2023/05/14 10:48:39;;;;;;;1.50;1.25;;;20.30;56.50;;;;;;8228232;28;20555;-78
2023/05/14 10:52:45;;;;;;;1.35;1.25;;;20.30;56.40;;;;;;8212465;28;20054;-79
2023/05/14 10:56:45;;;;;;;2.97;1.40;;;20.30;56.50;;;;;;8228341;28;20476;-78
2023/05/14 11:00:48;;;;;;;1.17;1.05;;;20.30;56.50;;;;;;8227709;28;20506;-78
2023/05/14 11:05:07;;;;;;;1.42;1.27;;;20.20;56.50;;;;;;8211906;28;20478;-78
2023/05/14 11:09:08;;;;;;;1.27;1.17;;;20.30;56.50;;;;;;8227844;28;20031;-79
2023/05/14 11:13:10;;;;;;;1.35;1.17;;;20.30;56.50;;;;;;8227600;28;20034;-78
2023/05/14 11:17:11;;;;;;;1.55;1.35;;;20.30;56.60;;;;;;8227714;28;20038;-78
2023/05/14 11:21:12;;;;;;;1.50;1.40;;;20.20;56.50;;;;;;8227701;28;20034;-78
2023/05/14 11:25:13;;;;;;;1.77;1.20;;;20.20;56.60;;;;;;8211879;28;20378;-78
2023/05/14 11:29:14;;;;;;;1.23;1.10;;;20.20;56.60;;;;;;8227539;28;20026;-78
2023/05/14 11:33:15;;;;;;;1.40;1.10;;;20.20;56.60;;;;;;8229001;28;20050;-78
2023/05/14 11:37:16;;;;;;;1.40;1.30;;;20.20;56.60;;;;;;8234742;28;20030;-78
2023/05/14 11:41:19;;;;;;;1.55;1.40;;;20.20;56.60;;;;;;8233893;28;20027;-78
2023/05/14 11:45:25;;;;;;;0.82;0.80;;;20.20;56.60;;;;;;8233197;28;20393;-78
2023/05/14 11:49:31;;;;;;;2.15;1.17;;;20.20;56.60;;;;;;8233983;28;20734;-78
2023/05/14 11:53:31;;;;;;;1.20;1.10;;;20.20;56.60;;;;;;8233341;28;20124;-78
2023/05/14 11:57:32;;;;;;;1.83;1.23;;;20.20;56.60;;;;;;8216381;28;20396;-78
2023/05/14 12:01:36;;;;;;;1.70;1.33;;;20.20;56.60;;;;;;8232601;28;20464;-78
2023/05/14 12:05:53;;;;;;;1.55;1.15;;;20.20;56.60;;;;;;8216932;28;20042;-78
2023/05/14 12:09:53;;;;;;;1.10;0.90;;;20.20;56.60;;;;;;8216471;28;20636;-78
2023/05/14 12:13:54;;;;;;;1.53;1.20;;;20.20;56.60;;;;;;8216121;28;20035;-78
2023/05/14 12:17:55;;;;;;;1.70;1.30;;;20.20;56.60;;;;;;8184478;28;20278;-78
2023/05/14 12:22:00;;;;;;;1.20;1.10;;;20.20;56.60;;;;;;8232242;28;20031;-78
2023/05/14 12:26:02;;;;;;;1.20;1.02;;;20.20;56.60;;;;;;8231828;28;20104;-78
2023/05/14 12:30:05;;;;;;;1.58;1.17;;;20.20;56.70;;;;;;8232056;28;20054;-78
2023/05/14 12:34:06;;;;;;;1.17;1.08;;;20.20;56.60;;;;;;8231599;28;20066;-78
2023/05/14 12:38:06;;;;;;;1.27;1.13;;;20.20;56.70;;;;;;8231718;28;20097;-78
2023/05/14 12:42:07;;;;;;;2.05;1.17;;;20.20;56.70;;;;;;8199466;28;20724;-78
2023/05/14 12:46:08;;;;;;;1.73;1.40;;;20.20;56.90;;;;;;8230203;28;20042;-78
2023/05/14 12:50:09;;;;;;;1.38;1.20;;;20.20;56.70;;;;;;8232412;28;20050;-79
2023/05/14 12:54:10;;;;;;;1.20;1.10;;;20.30;56.60;;;;;;8215197;28;20035;-78
2023/05/14 12:58:10;;;;;;;1.73;1.02;;;20.30;56.50;;;;;;8230857;28;20035;-78
2023/05/14 13:02:11;;;;;;;1.10;1.00;;;20.30;56.50;;;;;;8230900;28;20090;-78
2023/05/14 13:06:12;;;;;;;1.50;0.93;;;20.30;56.50;;;;;;8230709;28;20416;-78
2023/05/14 13:10:12;;;;;;;1.92;1.10;;;20.30;56.40;;;;;;8230631;28;20050;-78
2023/05/14 13:14:13;;;;;;;1.15;1.05;;;20.30;56.40;;;;;;8198338;28;20457;-79
2023/05/14 13:18:15;;;;;;;0.95;0.90;;;20.30;56.40;;;;;;8230179;28;20070;-78
2023/05/14 13:22:17;;;;;;;1.10;1.00;;;20.30;56.40;;;;;;8214461;28;20038;-78
2023/05/14 13:26:18;;;;;;;1.13;1.02;;;20.30;56.40;;;;;;8231797;28;20378;-79
2023/05/14 13:30:19;;;;;;;1.20;1.10;;;20.30;56.40;;;;;;8229945;28;20035;-78
2023/05/14 13:34:20;;;;;;;1.75;1.20;;;20.30;56.40;;;;;;8229738;28;20035;-78
2023/05/14 13:38:20;;;;;;;1.45;1.10;;;20.20;56.40;;;;;;8231200;28;20030;-78
2023/05/14 13:42:22;;;;;;;1.38;0.82;;;20.30;56.40;;;;;;8213563;28;20558;-78
2023/05/14 13:46:23;;;;;;;0.90;0.90;;;20.30;56.50;;;;;;8229454;28;20081;-78
2023/05/14 13:50:29;;;;;;;1.23;0.90;;;20.20;56.40;;;;;;8229585;28;20063;-78
2023/05/14 13:54:30;;;;;;;2.10;1.25;;;20.20;56.50;;;;;;8197508;28;20303;-78
2023/05/14 13:58:30;;;;;;;1.43;1.10;;;20.20;56.50;;;;;;8198352;28;20403;-78
2023/05/14 14:02:31;;;;;;;1.50;1.27;;;20.20;56.50;;;;;;8181802;29;20346;-78
2023/05/14 14:06:32;;;;;;;1.35;1.08;;;20.20;56.50;;;;;;8196839;29;20043;-78
2023/05/14 14:10:32;;;;;;;1.40;1.20;;;20.20;56.50;;;;;;8181287;29;20062;-78
2023/05/14 14:14:33;;;;;;;1.15;1.05;;;20.20;56.60;;;;;;8197494;29;20508;-78
2023/05/14 14:18:34;;;;;;;1.05;1.00;;;20.20;56.60;;;;;;8197224;29;20038;-78
2023/05/14 14:22:35;;;;;;;1.10;0.90;;;20.20;56.60;;;;;;8205231;28;20030;-78
2023/05/14 14:26:36;;;;;;;1.10;1.00;;;20.20;56.60;;;;;;8230158;28;20038;-78
2023/05/14 14:30:36;;;;;;;1.05;0.90;;;20.20;56.60;;;;;;8228564;28;20038;-78
2023/05/14 14:34:37;;;;;;;0.88;0.88;;;20.20;56.60;;;;;;8212600;28;20067;-78
2023/05/14 14:38:38;;;;;;;0.90;0.90;;;20.20;56.60;;;;;;8231660;28;20030;-78
2023/05/14 14:42:39;;;;;;;0.82;0.80;;;20.20;56.60;;;;;;8231552;28;20042;-78
2023/05/14 14:46:41;;;;;;;1.07;0.97;;;20.20;56.80;;;;;;8231654;28;20519;-78
2023/05/14 14:50:42;;;;;;;1.25;1.05;;;20.20;56.70;;;;;;8231547;28;20353;-78
2023/05/14 14:54:43;;;;;;;0.90;0.90;;;20.20;56.50;;;;;;8271632;28;20831;-78
2023/05/14 14:58:44;;;;;;;1.30;1.20;;;20.30;56.40;;;;;;8271167;28;20026;-78
2023/05/14 15:02:45;;;;;;;;;;;20.30;56.40;;;;;;8271412;28;20030;-78
2023/05/14 15:06:45;;;;;;;0.70;0.70;;;20.30;56.30;;;;;;8270804;28;19898;-78
2023/05/14 15:10:46;;;;;;;1.05;0.80;;;20.30;56.30;;;;;;8274733;28;20029;-78
2023/05/14 15:14:47;;;;;;;1.10;0.93;;;20.30;56.30;;;;;;8275930;28;20050;-78
2023/05/14 15:18:48;;;;;;;0.98;0.90;;;20.30;56.80;;;;;;8243820;28;20038;-78
2023/05/14 15:22:52;;;;;;;1.27;1.00;;;20.30;56.30;;;;;;8219665;28;20055;-78
2023/05/14 15:26:53;;;;;;;1.02;0.93;;;20.30;56.30;;;;;;8236609;28;20069;-79
2023/05/14 15:30:53;;;;;;;1.67;0.90;;;20.30;56.30;;;;;;8234217;28;20123;-78
2023/05/14 15:34:54;;;;;;;0.80;0.80;;;20.30;56.30;;;;;;8233466;28;20046;-78
2023/05/14 15:38:55;;;;;;;1.58;1.00;;;20.30;56.30;;;;;;8233394;28;20031;-79
2023/05/14 15:42:56;;;;;;;1.10;1.00;;;20.30;56.40;;;;;;8233193;28;20440;-78
2023/05/14 15:46:56;;;;;;;1.23;1.00;;;20.30;56.50;;;;;;8233628;28;20062;-78
2023/05/14 15:50:57;;;;;;;0.80;0.80;;;20.30;56.50;;;;;;8232913;28;20055;-79
2023/05/14 15:54:59;;;;;;;0.77;0.77;;;20.30;56.40;;;;;;8200975;28;20298;-79
2023/05/14 15:58:59;;;;;;;1.08;1.00;;;20.30;56.30;;;;;;8184930;29;20098;-78
2023/05/14 16:03:00;;;;;;;0.70;0.70;;;20.30;56.20;;;;;;8200897;29;20037;-78
2023/05/14 16:07:01;;;;;;;1.20;1.10;;;20.30;56.20;;;;;;8200891;29;20114;-79
2023/05/14 16:11:02;;;;;;;0.95;0.90;;;20.30;56.20;;;;;;8201490;29;20039;-78
2023/05/14 16:15:03;;;;;;;1.02;0.93;;;20.30;56.30;;;;;;8200348;29;20552;-78
2023/05/14 16:19:04;;;;;;;1.10;0.80;;;20.30;56.30;;;;;;8184427;28;20043;-78
2023/05/14 16:23:04;;;;;;;1.20;1.00;;;20.30;56.30;;;;;;8210851;28;20225;-78
2023/05/14 16:27:05;;;;;;;1.00;1.00;;;20.30;56.30;;;;;;8233161;28;20370;-78
2023/05/14 16:31:06;;;;;;;1.00;1.00;;;20.30;56.30;;;;;;8233109;28;20039;-78
2023/05/14 16:35:07;;;;;;;1.05;0.95;;;20.30;56.30;;;;;;8215744;28;20057;-77
2023/05/14 16:39:08;;;;;;;1.45;1.00;;;20.30;56.50;;;;;;8215305;28;20041;-77
2023/05/14 16:43:08;;;;;;;0.98;0.88;;;20.30;56.50;;;;;;8231339;28;20035;-77
2023/05/14 16:47:09;;;;;;;0.80;0.80;;;20.30;56.30;;;;;;8231280;28;20050;-77
2023/05/14 16:51:10;;;;;;;1.13;1.02;;;20.30;56.30;;;;;;8231326;28;20117;-77
2023/05/14 16:55:10;;;;;;;1.73;1.23;;;20.30;56.20;;;;;;8232412;28;20050;-77
2023/05/14 16:59:11;;;;;;;0.98;0.85;;;20.40;56.20;;;;;;8230719;28;20489;-77
2023/05/14 17:03:12;;;;;;;1.02;0.98;;;20.40;56.20;;;;;;8231098;28;20395;-77
2023/05/14 17:07:12;;;;;;;0.75;0.70;;;20.30;56.20;;;;;;8230664;28;20042;-79
2023/05/14 17:11:13;;;;;;;0.60;0.60;;;20.30;56.20;;;;;;8230596;28;20417;-77
2023/05/14 17:15:14;;;;;;;1.02;0.88;;;20.30;56.20;;;;;;8231676;28;20047;-77
2023/05/14 17:19:14;;;;;;;0.90;0.90;;;20.30;56.20;;;;;;8246599;28;20089;-77
2023/05/14 17:23:16;;;;;;;1.05;0.73;;;20.30;56.30;;;;;;8214472;28;20047;-77
2023/05/14 17:27:16;;;;;;;0.80;0.80;;;20.30;56.30;;;;;;8230024;28;20089;-77
2023/05/14 17:31:17;;;;;;;1.17;0.80;;;20.30;56.30;;;;;;8228883;28;20039;-77
2023/05/14 17:35:18;;;;;;;1.40;1.00;;;20.30;56.30;;;;;;8229814;28;20460;-77
2023/05/14 17:39:18;;;;;;;0.75;0.75;;;20.30;56.30;;;;;;8229822;28;20042;-77
2023/05/14 17:43:19;;;;;;;1.00;0.90;;;20.20;56.30;;;;;;8229383;28;20460;-77
2023/05/14 17:47:20;;;;;;;0.70;0.70;;;20.20;56.30;;;;;;8197204;28;20038;-77
2023/05/14 17:51:20;;;;;;;0.50;0.50;;;20.20;56.30;;;;;;8230355;28;20090;-77
2023/05/14 17:55:21;;;;;;;0.70;0.70;;;20.20;56.90;;;;;;8229438;28;20469;-77
2023/05/14 17:59:22;;;;;;;0.70;0.70;;;20.20;56.40;;;;;;8228712;28;20651;-77
2023/05/14 18:03:22;;;;;;;1.00;0.90;;;20.20;56.40;;;;;;8212661;28;20042;-77
2023/05/14 18:07:23;;;;;;;0.57;0.57;;;20.20;56.40;;;;;;8213396;28;20097;-77
2023/05/14 18:11:24;;;;;;;1.02;0.73;;;20.20;56.40;;;;;;8229167;28;20089;-77
2023/05/14 18:15:26;;;;;;;;;;;20.20;56.40;;;;;;8229223;28;20381;-77
2023/05/14 18:19:26;;;;;;;0.90;0.90;;;20.20;56.50;;;;;;8212798;28;20280;-78
2023/05/14 18:23:27;;;;;;;0.82;0.68;;;20.20;56.50;;;;;;8228896;28;20034;-77
2023/05/14 18:27:28;;;;;;;1.00;0.80;;;20.20;56.50;;;;;;8228384;28;20114;-78
2023/05/14 18:31:28;;;;;;;0.70;0.70;;;20.20;56.60;;;;;;8212001;28;20890;-77
2023/05/14 18:35:29;;;;;;;2.03;0.93;;;20.20;56.50;;;;;;8196327;28;20027;-77
2023/05/14 18:39:30;;;;;;;1.00;1.00;;;20.20;56.50;;;;;;8229402;28;20106;-78
2023/05/14 18:43:31;;;;;;;1.30;1.05;;;20.20;56.50;;;;;;8229754;28;20098;-77
2023/05/14 18:47:32;;;;;;;0.77;0.77;;;20.20;56.50;;;;;;8234866;28;20035;-77
2023/05/14 18:51:33;;;;;;;0.75;0.70;;;20.20;56.70;;;;;;8260509;28;20586;-77
2023/05/14 18:55:35;;;;;;;0.80;0.80;;;20.20;56.60;;;;;;8283290;28;20439;-77
2023/05/14 18:59:35;;;;;;;1.30;0.90;;;20.30;56.40;;;;;;8282739;28;20080;-77
2023/05/14 19:03:36;;;;;;;0.75;0.68;;;20.30;56.30;;;;;;8283230;28;20026;-77
2023/05/14 19:07:37;;;;;;;1.63;0.80;;;20.30;56.20;;;;;;8282624;28;20105;-77
2023/05/14 19:11:38;;;;;;;0.80;0.80;;;20.30;56.20;;;;;;8282634;28;20034;-78
2023/05/14 19:15:38;;;;;;;0.80;0.80;;;20.30;56.20;;;;;;8282737;28;20034;-77
2023/05/14 19:19:39;;;;;;;0.98;0.75;;;20.30;56.20;;;;;;8282275;28;20422;-78
2023/05/14 19:23:40;;;;;;;0.82;0.70;;;20.30;56.20;;;;;;8300273;28;20088;-79
2023/05/14 19:27:41;;;;;;;0.88;0.88;;;20.30;56.20;;;;;;8282684;28;20471;-78
2023/05/14 19:31:41;;;;;;;1.10;1.00;;;20.30;56.30;;;;;;8265650;28;20506;-78
2023/05/14 19:35:42;;;;;;;0.98;0.98;;;20.20;56.20;;;;;;8266671;28;20411;-78
2023/05/14 19:39:43;;;;;;;0.77;0.77;;;20.30;56.30;;;;;;8281756;28;20147;-78
2023/05/14 19:43:48;;;;;;;0.60;0.60;;;20.20;56.30;;;;;;8281709;28;20034;-78
2023/05/14 19:47:49;;;;;;;1.00;0.90;;;20.20;56.30;;;;;;8281603;28;20289;-78
2023/05/14 19:51:50;;;;;;;0.63;0.63;;;20.20;56.30;;;;;;8281556;28;20058;-78
2023/05/14 19:55:57;;;;;;;0.80;0.80;;;20.20;56.30;;;;;;8280798;28;20053;-78
2023/05/14 19:59:57;;;;;;;0.77;0.75;;;20.20;56.30;;;;;;8281441;28;20480;-79
2023/05/14 20:03:59;;;;;;;0.70;0.70;;;20.20;56.30;;;;;;8281027;28;20053;-78
2023/05/14 20:07:59;;;;;;;0.88;0.77;;;20.20;56.40;;;;;;8264826;28;20058;-78
2023/05/14 20:12:00;;;;;;;0.70;0.70;;;20.20;56.30;;;;;;8264558;28;20084;-78
2023/05/14 20:16:03;;;;;;;0.60;0.60;;;20.20;56.40;;;;;;8280816;28;20447;-78
2023/05/14 20:20:05;;;;;;;1.27;0.80;;;20.20;56.40;;;;;;8264621;28;20076;-78
2023/05/14 20:24:06;;;;;;;0.90;0.70;;;20.20;56.60;;;;;;8264731;28;20392;-78
2023/05/14 20:28:09;;;;;;;0.57;0.57;;;20.10;56.40;;;;;;8248034;28;20038;-78
2023/05/14 20:32:11;;;;;;;0.63;0.63;;;20.20;56.50;;;;;;8249897;28;20712;-78
2023/05/14 20:36:12;;;;;;;0.85;0.73;;;20.20;56.40;;;;;;8231462;28;20030;-78
2023/05/14 20:40:15;;;;;;;0.70;0.70;;;20.20;56.50;;;;;;8219935;28;20072;-79
2023/05/14 20:44:16;;;;;;;0.80;0.80;;;20.20;56.40;;;;;;8282350;28;20280;-78
2023/05/14 20:48:18;;;;;;;0.80;0.60;;;20.30;56.50;;;;;;8282100;28;20025;-78
2023/05/14 20:52:19;;;;;;;0.80;0.80;;;20.30;56.60;;;;;;8265335;28;20328;-79
2023/05/14 20:56:21;;;;;;;0.95;0.90;;;20.40;56.60;;;;;;8281873;28;20030;-78